Time,TemperatureF,DewpointF,PressureIn,WindDirection,WindDirectionDegrees,WindSpeedMPH,WindSpeedGustMPH,Humidity,HourlyPrecipIn,Conditions,Clouds,dailyrainin,SoftwareType,DateUTC
2014-01-18 00:01:00,40.4,24.6,29.90,NW,324,4.0,4.0,53,0.00,,,0.00,Wunderground v.1.15,2014-01-18 05:01:00,
2014-01-18 00:04:00,40.2,24.9,29.90,NW,325,4.0,5.0,54,0.00,,,0.00,Wunderground v.1.15,2014-01-18 05:04:00,
2014-01-18 00:05:00,40.2,24.9,29.90,NW,323,4.0,5.0,54,0.00,,,0.00,Wunderground v.1.15,2014-01-18 05:05:00,
2014-01-18 00:07:00,40.1,25.2,29.90,NNW,330,4.0,7.0,55,0.00,,,0.00,Wunderground v.1.15,2014-01-18 05:07:00,
2014-01-18 00:08:00,40.1,25.2,29.90,NW,309,4.0,7.0,55,0.00,,,0.00,Wunderground v.1.15,2014-01-18 05:08:00,
2014-01-18 00:12:00,39.9,25.5,29.90,NW,317,3.0,3.0,56,0.00,,,0.00,Wunderground v.1.15,2014-01-18 05:12:00,
2014-01-18 00:18:00,39.5,25.1,29.90,NW,313,1.0,3.0,56,0.00,,,0.00,Wunderground v.1.15,2014-01-18 05:18:00,
2014-01-18 00:24:00,39.1,24.7,29.90,NW,315,1.0,3.0,56,0.00,,,0.00,Wunderground v.1.15,2014-01-18 05:24:00,
2014-01-18 00:30:00,38.8,24.9,29.91,NNW,328,2.0,2.0,57,0.00,,,0.00,Wunderground v.1.15,2014-01-18 05:30:00,
2014-01-18 00:36:00,38.6,24.7,29.91,NNW,332,2.0,5.0,57,0.00,,,0.00,Wunderground v.1.15,2014-01-18 05:36:00,
2014-01-18 00:42:00,38.4,24.5,29.91,WNW,294,3.0,7.0,57,0.00,,,0.00,Wunderground v.1.15,2014-01-18 05:42:00,
2014-01-18 00:47:00,38.2,24.7,29.91,NW,306,3.0,7.0,58,0.00,,,0.00,Wunderground v.1.15,2014-01-18 05:47:00,
2014-01-18 00:53:00,38.0,24.5,29.90,NNW,334,3.0,3.0,58,0.00,,,0.00,Wunderground v.1.15,2014-01-18 05:53:00,
2014-01-18 00:59:00,37.7,24.2,29.90,WNW,300,2.0,3.0,58,0.00,,,0.00,Wunderground v.1.15,2014-01-18 05:59:00,
2014-01-18 01:04:00,37.5,24.1,29.90,WNW,301,2.0,4.0,58,0.00,,,0.00,Wunderground v.1.15,2014-01-18 06:04:00,
2014-01-18 01:10:00,37.3,24.3,29.90,WNW,298,1.0,1.0,59,0.00,,,0.00,Wunderground v.1.15,2014-01-18 06:10:00,
2014-01-18 01:16:00,37.0,24.0,29.90,WNW,299,0.0,1.0,59,0.00,,,0.00,Wunderground v.1.15,2014-01-18 06:16:00,
2014-01-18 01:21:00,36.7,24.1,29.91,NW,314,0.0,1.0,60,0.00,,,0.00,Wunderground v.1.15,2014-01-18 06:21:00,
2014-01-18 01:27:00,36.5,23.9,29.91,NW,311,1.0,2.0,60,0.00,,,0.00,Wunderground v.1.15,2014-01-18 06:27:00,
2014-01-18 01:32:00,36.2,24.0,29.91,NW,311,1.0,2.0,61,0.00,,,0.00,Wunderground v.1.15,2014-01-18 06:32:00,
2014-01-18 01:38:00,36.0,23.8,29.91,NW,311,1.0,2.0,61,0.00,,,0.00,Wunderground v.1.15,2014-01-18 06:38:00,
2014-01-18 01:44:00,35.7,23.9,29.91,NW,315,1.0,3.0,62,0.00,,,0.00,Wunderground v.1.15,2014-01-18 06:44:00,
2014-01-18 01:50:00,35.4,24.0,29.91,NW,317,1.0,2.0,63,0.00,,,0.00,Wunderground v.1.15,2014-01-18 06:50:00,
2014-01-18 01:55:00,35.3,24.0,29.91,NNW,336,2.0,3.0,63,0.00,,,0.00,Wunderground v.1.15,2014-01-18 06:55:00,
2014-01-18 02:00:00,35.3,24.0,29.91,NW,310,2.0,2.0,63,0.00,,,0.00,Wunderground v.1.15,2014-01-18 07:00:00,
2014-01-18 02:06:00,35.2,23.9,29.91,NW,304,2.0,4.0,63,0.00,,,0.00,Wunderground v.1.15,2014-01-18 07:06:00,
2014-01-18 02:11:00,35.3,23.2,29.91,NNW,333,3.0,3.0,61,0.00,,,0.00,Wunderground v.1.15,2014-01-18 07:11:00,
2014-01-18 02:17:00,35.3,22.0,29.91,NNW,338,4.0,9.0,58,0.00,,,0.00,Wunderground v.1.15,2014-01-18 07:17:00,
2014-01-18 02:22:00,35.4,21.7,29.91,NNW,335,4.0,4.0,57,0.00,,,0.00,Wunderground v.1.15,2014-01-18 07:22:00,
2014-01-18 02:28:00,35.3,21.6,29.91,North,350,3.0,5.0,57,0.00,,,0.00,Wunderground v.1.15,2014-01-18 07:28:00,
2014-01-18 02:33:00,35.2,21.5,29.91,NW,321,3.0,4.0,57,0.00,,,0.00,Wunderground v.1.15,2014-01-18 07:33:00,
2014-01-18 02:38:00,35.0,20.9,29.91,WNW,296,3.0,4.0,56,0.00,,,0.00,Wunderground v.1.15,2014-01-18 07:38:00,
2014-01-18 02:44:00,34.9,20.8,29.91,NW,320,3.0,4.0,56,0.00,,,0.00,Wunderground v.1.15,2014-01-18 07:44:00,
2014-01-18 02:50:00,34.7,20.6,29.91,NNW,332,3.0,3.0,56,0.00,,,0.00,Wunderground v.1.15,2014-01-18 07:50:00,
2014-01-18 02:55:00,34.4,20.7,29.92,NNW,333,2.0,3.0,57,0.00,,,0.00,Wunderground v.1.15,2014-01-18 07:55:00,
2014-01-18 03:00:00,34.2,20.5,29.92,NNW,329,1.0,1.0,57,0.00,,,0.00,Wunderground v.1.15,2014-01-18 08:00:00,
2014-01-18 03:06:00,33.9,20.7,29.92,NNW,328,1.0,2.0,58,0.00,,,0.00,Wunderground v.1.15,2014-01-18 08:06:00,
2014-01-18 03:12:00,33.6,20.8,29.92,NW,315,1.0,2.0,59,0.00,,,0.00,Wunderground v.1.15,2014-01-18 08:12:00,
2014-01-18 03:18:00,33.4,20.6,29.92,NW,317,1.0,2.0,59,0.00,,,0.00,Wunderground v.1.15,2014-01-18 08:18:00,
2014-01-18 03:23:00,33.2,20.8,29.92,NW,312,0.0,2.0,60,0.00,,,0.00,Wunderground v.1.15,2014-01-18 08:23:00,
2014-01-18 03:28:00,33.0,21.0,29.92,NW,322,1.0,3.0,61,0.00,,,0.00,Wunderground v.1.15,2014-01-18 08:28:00,
2014-01-18 03:34:00,32.8,20.8,29.92,NNW,334,2.0,2.0,61,0.00,,,0.00,Wunderground v.1.15,2014-01-18 08:34:00,
2014-01-18 03:39:00,33.0,21.0,29.92,NNW,336,2.0,3.0,61,0.00,,,0.00,Wunderground v.1.15,2014-01-18 08:39:00,
2014-01-18 03:45:00,33.1,20.3,29.93,NNW,336,3.0,5.0,59,0.00,,,0.00,Wunderground v.1.15,2014-01-18 08:45:00,
2014-01-18 03:51:00,33.3,19.7,29.93,NW,317,4.0,5.0,57,0.00,,,0.00,Wunderground v.1.15,2014-01-18 08:51:00,
2014-01-18 03:57:00,33.4,19.4,29.92,NNW,342,4.0,6.0,56,0.00,,,0.00,Wunderground v.1.15,2014-01-18 08:57:00,
2014-01-18 04:03:00,33.5,18.6,29.92,NW,313,5.0,7.0,54,0.00,,,0.00,Wunderground v.1.15,2014-01-18 09:03:00,
2014-01-18 04:09:00,33.6,18.7,29.93,NNW,327,6.0,9.0,54,0.00,,,0.00,Wunderground v.1.15,2014-01-18 09:09:00,
2014-01-18 04:15:00,33.6,18.3,29.93,North,355,5.0,8.0,53,0.00,,,0.00,Wunderground v.1.15,2014-01-18 09:15:00,
2014-01-18 04:20:00,33.5,18.2,29.93,NNW,331,4.0,6.0,53,0.00,,,0.00,Wunderground v.1.15,2014-01-18 09:20:00,
2014-01-18 04:26:00,33.4,17.2,29.93,NNW,346,4.0,6.0,51,0.00,,,0.00,Wunderground v.1.15,2014-01-18 09:26:00,
2014-01-18 04:32:00,33.4,16.3,29.93,NW,315,5.0,7.0,49,0.00,,,0.00,Wunderground v.1.15,2014-01-18 09:32:00,
2014-01-18 04:38:00,33.4,15.3,29.94,WNW,299,6.0,9.0,47,0.00,,,0.00,Wunderground v.1.15,2014-01-18 09:38:00,
2014-01-18 04:44:00,33.3,15.7,29.93,NW,318,6.0,9.0,48,0.00,,,0.00,Wunderground v.1.15,2014-01-18 09:44:00,
2014-01-18 04:49:00,33.3,15.2,29.94,NNW,344,6.0,9.0,47,0.00,,,0.00,Wunderground v.1.15,2014-01-18 09:49:00,
2014-01-18 04:55:00,33.3,15.2,29.94,NW,309,6.0,6.0,47,0.00,,,0.00,Wunderground v.1.15,2014-01-18 09:55:00,
2014-01-18 05:00:00,33.2,15.6,29.94,NW,318,6.0,6.0,48,0.00,,,0.00,Wunderground v.1.15,2014-01-18 10:00:00,
2014-01-18 05:06:00,33.2,15.6,29.94,WNW,298,6.0,7.0,48,0.00,,,0.00,Wunderground v.1.15,2014-01-18 10:06:00,
2014-01-18 05:11:00,33.1,16.0,29.94,NNW,332,4.0,4.0,49,0.00,,,0.00,Wunderground v.1.15,2014-01-18 10:11:00,
2014-01-18 05:16:00,33.0,15.9,29.94,NW,325,3.0,4.0,49,0.00,,,0.00,Wunderground v.1.15,2014-01-18 10:16:00,
2014-01-18 05:22:00,33.0,15.9,29.95,NW,311,4.0,7.0,49,0.00,,,0.00,Wunderground v.1.15,2014-01-18 10:22:00,
2014-01-18 05:28:00,33.0,15.9,29.95,NW,313,5.0,8.0,49,0.00,,,0.00,Wunderground v.1.15,2014-01-18 10:28:00,
2014-01-18 05:33:00,33.0,15.9,29.95,NW,326,6.0,6.0,49,0.00,,,0.00,Wunderground v.1.15,2014-01-18 10:33:00,
2014-01-18 05:39:00,32.9,16.3,29.95,NNW,333,5.0,6.0,50,0.00,,,0.00,Wunderground v.1.15,2014-01-18 10:39:00,
2014-01-18 05:44:00,32.8,16.2,29.96,NNW,338,4.0,8.0,50,0.00,,,0.00,Wunderground v.1.15,2014-01-18 10:44:00,
2014-01-18 05:49:00,32.6,13.1,29.97,NNW,336,5.0,8.0,44,0.00,,,0.00,Wunderground v.1.15,2014-01-18 10:49:00,
2014-01-18 05:55:00,32.2,12.2,29.97,NW,317,7.0,11.0,43,0.00,,,0.00,Wunderground v.1.15,2014-01-18 10:55:00,
2014-01-18 06:00:00,32.0,12.0,29.97,NNW,347,7.0,7.0,43,0.00,,,0.00,Wunderground v.1.15,2014-01-18 11:00:00,
2014-01-18 06:06:00,31.9,12.4,29.98,North,355,7.0,13.0,44,0.00,,,0.00,Wunderground v.1.15,2014-01-18 11:06:00,
2014-01-18 06:12:00,31.7,12.8,29.98,NNW,346,6.0,7.0,45,0.00,,,0.00,Wunderground v.1.15,2014-01-18 11:12:00,
2014-01-18 06:17:00,31.6,12.7,29.98,NNW,344,6.0,7.0,45,0.00,,,0.00,Wunderground v.1.15,2014-01-18 11:17:00,
2014-01-18 06:23:00,31.4,12.5,29.98,NNW,340,6.0,11.0,45,0.00,,,0.00,Wunderground v.1.15,2014-01-18 11:23:00,
2014-01-18 06:29:00,31.2,12.3,29.99,NNW,344,7.0,14.0,45,0.00,,,0.00,Wunderground v.1.15,2014-01-18 11:29:00,
2014-01-18 06:35:00,30.8,11.4,29.98,North,355,9.0,13.0,44,0.00,,,0.00,Wunderground v.1.15,2014-01-18 11:35:00,
2014-01-18 06:41:00,30.6,11.7,29.99,NW,326,8.0,12.0,45,0.00,,,0.00,Wunderground v.1.15,2014-01-18 11:41:00,
2014-01-18 06:47:00,30.4,11.6,29.99,NNW,341,6.0,12.0,45,0.00,,,0.00,Wunderground v.1.15,2014-01-18 11:47:00,
2014-01-18 06:53:00,30.2,11.9,29.99,NNW,329,6.0,11.0,46,0.00,,,0.00,Wunderground v.1.15,2014-01-18 11:53:00,
2014-01-18 06:59:00,30.1,11.8,29.99,NW,306,7.0,12.0,46,0.00,,,0.00,Wunderground v.1.15,2014-01-18 11:59:00,
2014-01-18 07:04:00,29.9,11.6,29.99,North,355,7.0,10.0,46,0.00,,,0.00,Wunderground v.1.15,2014-01-18 12:04:00,
2014-01-18 07:10:00,29.7,11.9,30.00,NW,310,6.0,7.0,47,0.00,,,0.00,Wunderground v.1.15,2014-01-18 12:10:00,
2014-01-18 07:15:00,29.5,11.7,30.00,NW,314,5.0,7.0,47,0.00,,,0.00,Wunderground v.1.15,2014-01-18 12:15:00,
2014-01-18 07:20:00,29.4,11.6,30.00,North,349,6.0,6.0,47,0.00,,,0.00,Wunderground v.1.15,2014-01-18 12:20:00,
2014-01-18 07:26:00,29.2,11.9,30.00,North,355,6.0,9.0,48,0.00,,,0.00,Wunderground v.1.15,2014-01-18 12:26:00,
2014-01-18 07:32:00,28.9,11.6,30.00,NNW,331,5.0,7.0,48,0.00,,,0.00,Wunderground v.1.15,2014-01-18 12:32:00,
2014-01-18 07:38:00,28.8,11.6,30.00,North,349,7.0,8.0,48,0.00,,,0.00,Wunderground v.1.15,2014-01-18 12:38:00,
2014-01-18 07:44:00,28.7,11.5,30.01,NW,315,6.0,10.0,48,0.00,,,0.00,Wunderground v.1.15,2014-01-18 12:44:00,
2014-01-18 07:50:00,28.7,11.9,30.01,NNW,342,5.0,5.0,49,0.00,,,0.00,Wunderground v.1.15,2014-01-18 12:50:00,
2014-01-18 07:55:00,28.6,11.8,30.01,NW,323,5.0,7.0,49,0.00,,,0.00,Wunderground v.1.15,2014-01-18 12:55:00,
2014-01-18 08:00:00,28.7,11.9,30.02,WNW,295,6.0,6.0,49,0.00,,,0.00,Wunderground v.1.15,2014-01-18 13:00:00,
2014-01-18 08:06:00,28.6,11.8,30.03,NW,304,6.0,9.0,49,0.00,,,0.00,Wunderground v.1.15,2014-01-18 13:06:00,
2014-01-18 08:12:00,28.7,11.5,30.03,NW,323,6.0,10.0,48,0.00,,,0.00,Wunderground v.1.15,2014-01-18 13:12:00,
2014-01-18 08:18:00,28.8,11.1,30.03,North,5,8.0,13.0,47,0.00,,,0.00,Wunderground v.1.15,2014-01-18 13:18:00,
2014-01-18 08:24:00,28.9,11.2,30.04,NNW,340,9.0,13.0,47,0.00,,,0.00,Wunderground v.1.15,2014-01-18 13:24:00,
2014-01-18 08:30:00,29.1,11.4,30.04,NNW,348,8.0,8.0,47,0.00,,,0.00,Wunderground v.1.15,2014-01-18 13:30:00,
2014-01-18 08:36:00,29.3,12.0,30.05,NNW,335,6.0,8.0,48,0.00,,,0.00,Wunderground v.1.15,2014-01-18 13:36:00,
2014-01-18 08:41:00,29.4,12.1,30.05,NW,305,6.0,8.0,48,0.00,,,0.00,Wunderground v.1.15,2014-01-18 13:41:00,
2014-01-18 08:47:00,29.6,11.8,30.06,NW,317,7.0,8.0,47,0.00,,,0.00,Wunderground v.1.15,2014-01-18 13:47:00,
2014-01-18 08:52:00,29.8,12.0,30.05,NNW,331,6.0,6.0,47,0.00,,,0.00,Wunderground v.1.15,2014-01-18 13:52:00,
2014-01-18 08:57:00,30.0,12.2,30.05,North,355,5.0,7.0,47,0.00,,,0.00,Wunderground v.1.15,2014-01-18 13:57:00,
2014-01-18 09:03:00,30.2,11.9,30.06,NNW,343,6.0,13.0,46,0.00,,,0.00,Wunderground v.1.15,2014-01-18 14:03:00,
2014-01-18 09:08:00,30.2,11.9,30.06,NNW,333,6.0,13.0,46,0.00,,,0.00,Wunderground v.1.15,2014-01-18 14:08:00,
2014-01-18 09:14:00,30.2,11.4,30.07,NW,322,7.0,14.0,45,0.00,,,0.00,Wunderground v.1.15,2014-01-18 14:14:00,
2014-01-18 09:19:00,30.2,10.9,30.07,NNW,340,8.0,14.0,44,0.00,,,0.00,Wunderground v.1.15,2014-01-18 14:19:00,
2014-01-18 09:25:00,30.2,11.4,30.07,NNW,328,8.0,14.0,45,0.00,,,0.00,Wunderground v.1.15,2014-01-18 14:25:00,
2014-01-18 09:31:00,30.4,11.6,30.08,NW,323,8.0,12.0,45,0.00,,,0.00,Wunderground v.1.15,2014-01-18 14:31:00,
2014-01-18 09:36:00,30.5,11.7,30.08,North,355,7.0,12.0,45,0.00,,,0.00,Wunderground v.1.15,2014-01-18 14:36:00,
2014-01-18 09:42:00,30.8,11.9,30.08,WNW,286,6.0,10.0,45,0.00,,,0.00,Wunderground v.1.15,2014-01-18 14:42:00,
2014-01-18 09:47:00,30.7,10.8,30.08,North,355,7.0,13.0,43,0.00,,,0.00,Wunderground v.1.15,2014-01-18 14:47:00,
2014-01-18 09:53:00,30.6,10.7,30.09,NW,307,9.0,9.0,43,0.00,,,0.00,Wunderground v.1.15,2014-01-18 14:53:00,
2014-01-18 09:59:00,31.0,11.6,30.09,NW,305,7.0,9.0,44,0.00,,,0.00,Wunderground v.1.15,2014-01-18 14:59:00,
2014-01-18 10:04:00,31.2,11.8,30.09,NNW,333,7.0,10.0,44,0.00,,,0.00,Wunderground v.1.15,2014-01-18 15:04:00,
2014-01-18 10:10:00,31.1,11.2,30.09,NW,315,9.0,9.0,43,0.00,,,0.00,Wunderground v.1.15,2014-01-18 15:10:00,
2014-01-18 10:15:00,31.4,11.5,30.09,NNW,330,8.0,13.0,43,0.00,,,0.00,Wunderground v.1.15,2014-01-18 15:15:00,
2014-01-18 10:21:00,31.7,11.2,30.10,NNW,336,7.0,14.0,42,0.00,,,0.00,Wunderground v.1.15,2014-01-18 15:21:00,
2014-01-18 10:27:00,31.7,11.2,30.09,NE,38,8.0,14.0,42,0.00,,,0.00,Wunderground v.1.15,2014-01-18 15:27:00,
2014-01-18 10:33:00,31.9,11.4,30.09,NW,311,7.0,10.0,42,0.00,,,0.00,Wunderground v.1.15,2014-01-18 15:33:00,
2014-01-18 10:39:00,31.9,10.8,30.10,NNE,16,8.0,14.0,41,0.00,,,0.00,Wunderground v.1.15,2014-01-18 15:39:00,
2014-01-18 10:44:00,32.0,10.9,30.10,NW,320,8.0,12.0,41,0.00,,,0.00,Wunderground v.1.15,2014-01-18 15:44:00,
2014-01-18 10:50:00,32.3,11.2,30.10,NW,325,8.0,8.0,41,0.00,,,0.00,Wunderground v.1.15,2014-01-18 15:50:00,
2014-01-18 10:56:00,32.1,11.6,30.10,North,355,8.0,12.0,42,0.00,,,0.00,Wunderground v.1.15,2014-01-18 15:56:00,
2014-01-18 11:02:00,32.4,11.8,30.10,NW,324,7.0,8.0,42,0.00,,,0.00,Wunderground v.1.15,2014-01-18 16:02:00,
2014-01-18 11:08:00,32.6,12.0,30.10,NW,320,7.0,8.0,42,0.00,,,0.00,Wunderground v.1.15,2014-01-18 16:08:00,
2014-01-18 11:13:00,33.2,12.6,30.10,NNW,348,6.0,7.0,42,0.00,,,0.00,Wunderground v.1.15,2014-01-18 16:13:00,
2014-01-18 11:19:00,33.1,11.4,30.10,North,355,5.0,10.0,40,0.00,,,0.00,Wunderground v.1.15,2014-01-18 16:19:00,
2014-01-18 11:25:00,33.5,12.8,30.09,NW,326,6.0,7.0,42,0.00,,,0.00,Wunderground v.1.15,2014-01-18 16:25:00,
2014-01-18 11:31:00,33.6,12.4,30.09,NNW,348,6.0,7.0,41,0.00,,,0.00,Wunderground v.1.15,2014-01-18 16:31:00,
2014-01-18 11:36:00,33.5,12.3,30.09,NW,317,7.0,8.0,41,0.00,,,0.00,Wunderground v.1.15,2014-01-18 16:36:00,
2014-01-18 11:42:00,33.9,13.2,30.08,NNW,346,6.0,6.0,42,0.00,,,0.00,Wunderground v.1.15,2014-01-18 16:42:00,
2014-01-18 11:48:00,33.9,12.6,30.08,West,277,6.0,10.0,41,0.00,,,0.00,Wunderground v.1.15,2014-01-18 16:48:00,
2014-01-18 11:54:00,34.6,13.3,30.08,NW,315,5.0,11.0,41,0.00,,,0.00,Wunderground v.1.15,2014-01-18 16:54:00,
2014-01-18 12:00:00,34.5,13.2,30.08,North,355,5.0,7.0,41,0.00,,,0.00,Wunderground v.1.15,2014-01-18 17:00:00,
2014-01-18 12:06:00,34.7,12.8,30.07,NW,322,5.0,7.0,40,0.00,,,0.00,Wunderground v.1.15,2014-01-18 17:06:00,
2014-01-18 12:11:00,34.9,13.5,30.07,West,277,4.0,7.0,41,0.00,,,0.00,Wunderground v.1.15,2014-01-18 17:11:00,
2014-01-18 12:16:00,35.1,13.2,30.07,NW,323,5.0,7.0,40,0.00,,,0.00,Wunderground v.1.15,2014-01-18 17:16:00,
2014-01-18 12:22:00,35.0,13.6,30.06,NNW,344,7.0,7.0,41,0.00,,,0.00,Wunderground v.1.15,2014-01-18 17:22:00,
2014-01-18 12:27:00,35.6,14.2,30.06,NNW,336,7.0,8.0,41,0.00,,,0.00,Wunderground v.1.15,2014-01-18 17:27:00,
2014-01-18 12:28:00,35.7,14.3,30.06,NW,315,6.0,8.0,41,0.00,,,0.00,Wunderground v.1.15,2014-01-18 17:28:00,
2014-01-18 12:33:00,35.6,13.0,30.05,NNW,331,6.0,13.0,39,0.00,,,0.00,Wunderground v.1.15,2014-01-18 17:33:00,
2014-01-18 12:39:00,35.6,13.6,30.05,SW,222,5.0,13.0,40,0.00,,,0.00,Wunderground v.1.15,2014-01-18 17:39:00,
2014-01-18 12:45:00,36.0,14.0,30.05,West,265,6.0,12.0,40,0.00,,,0.00,Wunderground v.1.15,2014-01-18 17:45:00,
2014-01-18 12:50:00,36.1,14.1,30.04,NW,317,6.0,10.0,40,0.00,,,0.00,Wunderground v.1.15,2014-01-18 17:50:00,
2014-01-18 12:55:00,36.3,14.8,30.04,NNW,340,6.0,10.0,41,0.00,,,0.00,Wunderground v.1.15,2014-01-18 17:55:00,
2014-01-18 13:01:00,36.8,14.7,30.04,NW,309,5.0,6.0,40,0.00,,,0.00,Wunderground v.1.15,2014-01-18 18:01:00,
2014-01-18 13:07:00,37.0,15.5,30.04,WNW,300,4.0,7.0,41,0.00,,,0.00,Wunderground v.1.15,2014-01-18 18:07:00,
2014-01-18 13:13:00,37.0,15.5,30.04,NNW,335,6.0,10.0,41,0.00,,,0.00,Wunderground v.1.15,2014-01-18 18:13:00,
2014-01-18 13:19:00,37.0,14.3,30.03,NW,316,6.0,10.0,39,0.00,,,0.00,Wunderground v.1.15,2014-01-18 18:19:00,
2014-01-18 13:24:00,37.3,14.6,30.03,NW,326,5.0,8.0,39,0.00,,,0.00,Wunderground v.1.15,2014-01-18 18:24:00,
2014-01-18 13:30:00,37.9,15.7,30.03,NNW,332,4.0,4.0,40,0.00,,,0.00,Wunderground v.1.15,2014-01-18 18:30:00,
2014-01-18 13:36:00,38.2,15.4,30.02,NNW,333,4.0,9.0,39,0.00,,,0.00,Wunderground v.1.15,2014-01-18 18:36:00,
2014-01-18 13:42:00,38.2,16.0,30.03,NNW,331,5.0,8.0,40,0.00,,,0.00,Wunderground v.1.15,2014-01-18 18:42:00,
2014-01-18 13:48:00,37.9,15.1,30.03,WNW,301,5.0,8.0,39,0.00,,,0.00,Wunderground v.1.15,2014-01-18 18:48:00,
2014-01-18 13:54:00,38.0,15.2,30.03,NW,325,6.0,11.0,39,0.00,,,0.00,Wunderground v.1.15,2014-01-18 18:54:00,
2014-01-18 13:59:00,38.4,15.6,30.03,West,280,6.0,11.0,39,0.00,,,0.00,Wunderground v.1.15,2014-01-18 18:59:00,
2014-01-18 14:05:00,38.8,15.3,30.02,WNW,292,5.0,5.0,38,0.00,,,0.00,Wunderground v.1.15,2014-01-18 19:05:00,
2014-01-18 14:11:00,39.2,16.3,30.03,WSW,248,4.0,4.0,39,0.00,,,0.00,Wunderground v.1.15,2014-01-18 19:11:00,
2014-01-18 14:17:00,39.5,16.0,30.02,North,355,4.0,7.0,38,0.00,,,0.00,Wunderground v.1.15,2014-01-18 19:17:00,
2014-01-18 14:22:00,39.6,15.4,30.02,NNW,342,4.0,10.0,37,0.00,,,0.00,Wunderground v.1.15,2014-01-18 19:22:00,
2014-01-18 14:27:00,39.4,15.9,30.02,NNW,327,6.0,16.0,38,0.00,,,0.00,Wunderground v.1.15,2014-01-18 19:27:00,
2014-01-18 14:33:00,39.6,16.0,30.02,West,262,6.0,12.0,38,0.00,,,0.00,Wunderground v.1.15,2014-01-18 19:33:00,
2014-01-18 14:38:00,39.6,15.4,30.02,WNW,293,6.0,12.0,37,0.00,,,0.00,Wunderground v.1.15,2014-01-18 19:38:00,
2014-01-18 14:43:00,39.9,15.7,30.02,NE,41,6.0,8.0,37,0.00,,,0.00,Wunderground v.1.15,2014-01-18 19:43:00,
2014-01-18 14:49:00,39.6,16.0,30.01,NW,311,7.0,10.0,38,0.00,,,0.00,Wunderground v.1.15,2014-01-18 19:49:00,
2014-01-18 14:54:00,39.7,16.1,30.02,NW,326,6.0,7.0,38,0.00,,,0.00,Wunderground v.1.15,2014-01-18 19:54:00,
2014-01-18 14:59:00,40.2,16.6,30.01,West,262,5.0,7.0,38,0.00,,,0.00,Wunderground v.1.15,2014-01-18 19:59:00,
2014-01-18 15:05:00,40.7,15.8,30.02,NNW,340,5.0,8.0,36,0.00,,,0.00,Wunderground v.1.15,2014-01-18 20:05:00,
2014-01-18 15:10:00,40.8,15.9,30.01,NW,311,4.0,8.0,36,0.00,,,0.00,Wunderground v.1.15,2014-01-18 20:10:00,
2014-01-18 15:16:00,40.6,15.7,30.01,NW,319,5.0,8.0,36,0.00,,,0.00,Wunderground v.1.15,2014-01-18 20:16:00,
2014-01-18 15:22:00,40.9,16.0,30.01,West,281,4.0,8.0,36,0.00,,,0.00,Wunderground v.1.15,2014-01-18 20:22:00,
2014-01-18 15:28:00,40.7,15.8,30.01,NW,309,5.0,10.0,36,0.00,,,0.00,Wunderground v.1.15,2014-01-18 20:28:00,
2014-01-18 15:33:00,40.5,15.6,30.01,NW,321,6.0,8.0,36,0.00,,,0.00,Wunderground v.1.15,2014-01-18 20:33:00,
2014-01-18 15:39:00,40.5,15.0,30.01,West,265,4.0,8.0,35,0.00,,,0.00,Wunderground v.1.15,2014-01-18 20:39:00,
2014-01-18 15:45:00,41.0,16.0,30.01,NNW,345,3.0,5.0,36,0.00,,,0.00,Wunderground v.1.15,2014-01-18 20:45:00,
2014-01-18 15:51:00,41.4,15.8,30.01,WNW,284,3.0,4.0,35,0.00,,,0.00,Wunderground v.1.15,2014-01-18 20:51:00,
2014-01-18 15:57:00,41.2,15.6,30.01,NW,312,3.0,8.0,35,0.00,,,0.00,Wunderground v.1.15,2014-01-18 20:57:00,
2014-01-18 16:02:00,40.9,15.3,30.01,NNW,334,4.0,7.0,35,0.00,,,0.00,Wunderground v.1.15,2014-01-18 21:02:00,
2014-01-18 16:07:00,40.8,15.2,30.01,NNE,22,4.0,7.0,35,0.00,,,0.00,Wunderground v.1.15,2014-01-18 21:07:00,
2014-01-18 16:12:00,41.0,16.0,30.01,West,265,3.0,5.0,36,0.00,,,0.00,Wunderground v.1.15,2014-01-18 21:12:00,
2014-01-18 16:19:00,41.1,16.1,30.01,NW,308,2.0,6.0,36,0.00,,,0.00,Wunderground v.1.15,2014-01-18 21:19:00,
2014-01-18 16:25:00,41.3,16.3,30.02,SW,236,2.0,3.0,36,0.00,,,0.00,Wunderground v.1.15,2014-01-18 21:25:00,
2014-01-18 16:30:00,41.3,15.7,30.02,SSE,161,2.0,3.0,35,0.00,,,0.00,Wunderground v.1.15,2014-01-18 21:30:00,
2014-01-18 16:36:00,41.4,16.4,30.02,WSW,258,2.0,3.0,36,0.00,,,0.00,Wunderground v.1.15,2014-01-18 21:36:00,
2014-01-18 16:41:00,41.4,16.4,30.02,SSW,211,2.0,3.0,36,0.00,,,0.00,Wunderground v.1.15,2014-01-18 21:41:00,
2014-01-18 16:46:00,41.2,16.2,30.02,West,267,2.0,4.0,36,0.00,,,0.00,Wunderground v.1.15,2014-01-18 21:46:00,
2014-01-18 16:52:00,40.7,16.4,30.03,West,277,3.0,4.0,37,0.00,,,0.00,Wunderground v.1.15,2014-01-18 21:52:00,
2014-01-18 16:57:00,40.6,16.3,30.03,WNW,297,3.0,5.0,37,0.00,,,0.00,Wunderground v.1.15,2014-01-18 21:57:00,
2014-01-18 17:03:00,40.5,16.2,30.03,NW,317,2.0,3.0,37,0.00,,,0.00,Wunderground v.1.15,2014-01-18 22:03:00,
2014-01-18 17:08:00,40.2,16.6,30.03,SSW,207,2.0,4.0,38,0.00,,,0.00,Wunderground v.1.15,2014-01-18 22:08:00,
2014-01-18 17:13:00,39.9,16.9,30.03,NW,307,2.0,3.0,39,0.00,,,0.00,Wunderground v.1.15,2014-01-18 22:13:00,
2014-01-18 17:19:00,39.7,16.7,30.03,WSW,238,1.0,4.0,39,0.00,,,0.00,Wunderground v.1.15,2014-01-18 22:19:00,
2014-01-18 17:25:00,39.6,17.2,30.02,NW,309,2.0,8.0,40,0.00,,,0.00,Wunderground v.1.15,2014-01-18 22:25:00,
2014-01-18 17:30:00,39.5,17.1,30.02,West,261,2.0,2.0,40,0.00,,,0.00,Wunderground v.1.15,2014-01-18 22:30:00,
2014-01-18 17:36:00,39.2,16.9,30.02,NW,315,1.0,2.0,40,0.00,,,0.00,Wunderground v.1.15,2014-01-18 22:36:00,
2014-01-18 17:42:00,38.8,16.5,30.02,NW,305,1.0,3.0,40,0.00,,,0.00,Wunderground v.1.15,2014-01-18 22:42:00,
2014-01-18 17:48:00,38.6,16.9,30.02,WSW,254,1.0,4.0,41,0.00,,,0.00,Wunderground v.1.15,2014-01-18 22:48:00,
2014-01-18 17:54:00,38.3,16.6,30.02,South,180,1.0,1.0,41,0.00,,,0.00,Wunderground v.1.15,2014-01-18 22:54:00,
2014-01-18 17:59:00,38.0,16.9,30.02,South,188,0.0,2.0,42,0.00,,,0.00,Wunderground v.1.15,2014-01-18 22:59:00,
2014-01-18 18:04:00,37.7,16.6,30.01,SW,221,0.0,1.0,42,0.00,,,0.00,Wunderground v.1.15,2014-01-18 23:04:00,
2014-01-18 18:09:00,37.4,16.9,30.02,SW,222,0.0,1.0,43,0.00,,,0.00,Wunderground v.1.15,2014-01-18 23:09:00,
2014-01-18 18:15:00,37.1,16.6,30.02,SW,223,0.0,1.0,43,0.00,,,0.00,Wunderground v.1.15,2014-01-18 23:15:00,
2014-01-18 18:20:00,36.8,16.9,30.02,SW,222,0.0,0.0,44,0.00,,,0.00,Wunderground v.1.15,2014-01-18 23:20:00,
2014-01-18 18:26:00,36.4,16.5,30.02,SW,223,0.0,0.0,44,0.00,,,0.00,Wunderground v.1.15,2014-01-18 23:26:00,
2014-01-18 18:32:00,36.2,16.9,30.02,SW,223,0.0,0.0,45,0.00,,,0.00,Wunderground v.1.15,2014-01-18 23:32:00,
2014-01-18 18:38:00,35.8,16.0,30.02,SW,223,0.0,0.0,44,0.00,,,0.00,Wunderground v.1.15,2014-01-18 23:38:00,
2014-01-18 18:44:00,35.7,15.9,30.03,SW,223,0.0,0.0,44,0.00,,,0.00,Wunderground v.1.15,2014-01-18 23:44:00,
2014-01-18 18:49:00,35.5,16.2,30.03,SW,223,0.0,0.0,45,0.00,,,0.00,Wunderground v.1.15,2014-01-18 23:49:00,
2014-01-18 18:54:00,35.3,16.0,30.02,SW,223,0.0,0.0,45,0.00,,,0.00,Wunderground v.1.15,2014-01-18 23:54:00,
2014-01-18 19:00:00,35.3,16.0,30.03,SW,223,0.0,0.0,45,0.00,,,0.00,Wunderground v.1.15,2014-01-19 00:00:00,
2014-01-18 19:06:00,35.3,16.6,30.02,SW,222,0.0,0.0,46,0.00,,,0.00,Wunderground v.1.15,2014-01-19 00:06:00,
2014-01-18 19:12:00,35.1,16.4,30.02,SW,222,0.0,0.0,46,0.00,,,0.00,Wunderground v.1.15,2014-01-19 00:12:00,
2014-01-18 19:18:00,34.9,16.2,30.02,SW,222,0.0,0.0,46,0.00,,,0.00,Wunderground v.1.15,2014-01-19 00:18:00,
2014-01-18 19:23:00,34.7,16.5,30.02,SW,222,0.0,0.0,47,0.00,,,0.00,Wunderground v.1.15,2014-01-19 00:23:00,
2014-01-18 19:28:00,34.6,16.9,30.02,SW,222,0.0,0.0,48,0.00,,,0.00,Wunderground v.1.15,2014-01-19 00:28:00,
2014-01-18 19:34:00,34.4,16.7,30.03,SW,222,0.0,0.0,48,0.00,,,0.00,Wunderground v.1.15,2014-01-19 00:34:00,
2014-01-18 19:40:00,33.9,16.7,30.03,SW,222,0.0,0.0,49,0.00,,,0.00,Wunderground v.1.15,2014-01-19 00:40:00,
2014-01-18 19:46:00,33.5,16.8,30.02,SW,222,0.0,0.0,50,0.00,,,0.00,Wunderground v.1.15,2014-01-19 00:46:00,
2014-01-18 19:51:00,33.3,17.5,30.02,SW,221,0.0,0.0,52,0.00,,,0.00,Wunderground v.1.15,2014-01-19 00:51:00,
2014-01-18 19:56:00,33.1,17.8,30.02,SW,221,0.0,0.0,53,0.00,,,0.00,Wunderground v.1.15,2014-01-19 00:56:00,
2014-01-18 20:02:00,32.9,18.5,30.02,SW,221,0.0,0.0,55,0.00,,,0.00,Wunderground v.1.15,2014-01-19 01:02:00,
2014-01-18 20:07:00,32.6,18.6,30.02,SSW,211,0.0,0.0,56,0.00,,,0.00,Wunderground v.1.15,2014-01-19 01:07:00,
2014-01-18 20:13:00,32.4,18.8,30.02,SSW,197,0.0,0.0,57,0.00,,,0.00,Wunderground v.1.15,2014-01-19 01:13:00,
2014-01-18 20:19:00,32.1,19.0,30.02,SSW,197,0.0,0.0,58,0.00,,,0.00,Wunderground v.1.15,2014-01-19 01:19:00,
2014-01-18 20:25:00,31.6,18.9,30.02,SSW,197,0.0,0.0,59,0.00,,,0.00,Wunderground v.1.15,2014-01-19 01:25:00,
2014-01-18 20:31:00,31.2,18.9,30.02,SSW,197,0.0,0.0,60,0.00,,,0.00,Wunderground v.1.15,2014-01-19 01:31:00,
2014-01-18 20:37:00,30.9,19.0,30.02,SSW,197,0.0,0.0,61,0.00,,,0.00,Wunderground v.1.15,2014-01-19 01:37:00,
2014-01-18 20:43:00,30.7,19.2,30.01,SE,136,0.0,2.0,62,0.00,,,0.00,Wunderground v.1.15,2014-01-19 01:43:00,
2014-01-18 20:49:00,30.6,19.5,30.01,ESE,121,0.0,2.0,63,0.00,,,0.00,Wunderground v.1.15,2014-01-19 01:49:00,
2014-01-18 20:55:00,30.4,19.7,30.00,ESE,121,0.0,0.0,64,0.00,,,0.00,Wunderground v.1.15,2014-01-19 01:55:00,
2014-01-18 21:00:00,30.1,19.7,30.00,ESE,121,0.0,0.0,65,0.00,,,0.00,Wunderground v.1.15,2014-01-19 02:00:00,
2014-01-18 21:06:00,29.8,19.8,30.00,ESE,121,0.0,0.0,66,0.00,,,0.00,Wunderground v.1.15,2014-01-19 02:06:00,
2014-01-18 21:12:00,29.5,19.5,30.00,ESE,121,0.0,0.0,66,0.00,,,0.00,Wunderground v.1.15,2014-01-19 02:12:00,
2014-01-18 21:18:00,29.5,19.2,30.00,South,181,0.0,1.0,65,0.00,,,0.00,Wunderground v.1.15,2014-01-19 02:18:00,
2014-01-18 21:24:00,29.6,19.3,30.00,South,178,0.0,1.0,65,0.00,,,0.00,Wunderground v.1.15,2014-01-19 02:24:00,
2014-01-18 21:30:00,29.7,19.4,30.00,South,178,0.0,0.0,65,0.00,,,0.00,Wunderground v.1.15,2014-01-19 02:30:00,
2014-01-18 21:36:00,29.7,19.0,30.00,South,178,0.0,0.0,64,0.00,,,0.00,Wunderground v.1.15,2014-01-19 02:36:00,
2014-01-18 21:41:00,29.6,19.3,30.00,South,180,0.0,0.0,65,0.00,,,0.00,Wunderground v.1.15,2014-01-19 02:41:00,
2014-01-18 21:46:00,29.6,18.9,30.01,SW,217,0.0,1.0,64,0.00,,,0.00,Wunderground v.1.15,2014-01-19 02:46:00,
2014-01-18 21:51:00,29.9,19.2,30.01,SSW,205,1.0,4.0,64,0.00,,,0.00,Wunderground v.1.15,2014-01-19 02:51:00,
2014-01-18 21:57:00,30.5,19.4,30.00,SSW,211,1.0,4.0,63,0.00,,,0.00,Wunderground v.1.15,2014-01-19 02:57:00,
2014-01-18 22:02:00,31.0,19.1,30.01,SSW,206,1.0,1.0,61,0.00,,,0.00,Wunderground v.1.15,2014-01-19 03:02:00,
2014-01-18 22:08:00,31.3,19.0,30.01,SSW,211,1.0,1.0,60,0.00,,,0.00,Wunderground v.1.15,2014-01-19 03:08:00,
2014-01-18 22:14:00,31.5,18.8,30.01,SSW,211,0.0,1.0,59,0.00,,,0.00,Wunderground v.1.15,2014-01-19 03:14:00,
2014-01-18 22:19:00,31.7,19.0,30.01,SSW,210,0.0,1.0,59,0.00,,,0.00,Wunderground v.1.15,2014-01-19 03:19:00,
2014-01-18 22:25:00,31.7,18.6,30.03,SSW,211,0.0,0.0,58,0.00,,,0.00,Wunderground v.1.15,2014-01-19 03:25:00,
2014-01-18 22:30:00,31.5,18.8,30.03,SSW,211,0.0,0.0,59,0.00,,,0.00,Wunderground v.1.15,2014-01-19 03:30:00,
2014-01-18 22:35:00,31.3,19.0,30.03,SSW,211,0.0,0.0,60,0.00,,,0.00,Wunderground v.1.15,2014-01-19 03:35:00,
2014-01-18 22:40:00,31.2,18.1,30.03,SSW,211,0.0,0.0,58,0.00,,,0.00,Wunderground v.1.15,2014-01-19 03:40:00,
2014-01-18 22:46:00,31.6,18.1,30.02,SSW,212,0.0,0.0,57,0.00,,,0.00,Wunderground v.1.15,2014-01-19 03:46:00,
2014-01-18 22:52:00,31.7,19.0,30.02,SSW,207,0.0,0.0,59,0.00,,,0.00,Wunderground v.1.15,2014-01-19 03:52:00,
2014-01-18 22:58:00,31.6,18.9,30.02,SSW,200,0.0,0.0,59,0.00,,,0.00,Wunderground v.1.15,2014-01-19 03:58:00,
2014-01-18 23:04:00,31.4,19.1,30.02,SSW,202,0.0,0.0,60,0.00,,,0.00,Wunderground v.1.15,2014-01-19 04:04:00,
2014-01-18 23:09:00,31.5,18.8,30.01,South,190,0.0,1.0,59,0.00,,,0.00,Wunderground v.1.15,2014-01-19 04:09:00,
2014-01-18 23:15:00,31.5,19.2,30.01,South,186,0.0,1.0,60,0.00,,,0.00,Wunderground v.1.15,2014-01-19 04:15:00,
2014-01-18 23:21:00,31.3,18.6,30.01,South,187,0.0,0.0,59,0.00,,,0.00,Wunderground v.1.15,2014-01-19 04:21:00,
2014-01-18 23:26:00,31.3,18.2,30.01,South,188,0.0,0.0,58,0.00,,,0.00,Wunderground v.1.15,2014-01-19 04:26:00,
2014-01-18 23:31:00,31.4,17.9,30.01,SSW,194,0.0,2.0,57,0.00,,,0.00,Wunderground v.1.15,2014-01-19 04:31:00,
2014-01-18 23:37:00,31.7,18.2,30.00,South,188,0.0,2.0,57,0.00,,,0.00,Wunderground v.1.15,2014-01-19 04:37:00,
2014-01-18 23:42:00,31.7,18.2,30.00,South,177,0.0,1.0,57,0.00,,,0.00,Wunderground v.1.15,2014-01-19 04:42:00,
2014-01-18 23:48:00,31.7,18.6,30.00,South,176,0.0,1.0,58,0.00,,,0.00,Wunderground v.1.15,2014-01-19 04:48:00,
2014-01-18 23:53:00,31.5,18.8,30.00,South,176,0.0,0.0,59,0.00,,,0.00,Wunderground v.1.15,2014-01-19 04:53:00,
2014-01-18 23:58:00,31.2,18.5,30.00,South,176,0.0,0.0,59,0.00,,,0.00,Wunderground v.1.15,2014-01-19 04:58:00,